Time;durP1;ratioP1;P1;durP2;ratioP2;P2;SDS_P1;SDS_P2;PMS_P1;PMS_P2;Temp;Humidity;BMP_temperature;BMP_pressure;BME280_temperature;BME280_humidity;BME280_pressure;Samples;Min_cycle;Max_cycle;Signal;HPM_P1;HPM_P2
2023/06/03 00:01:16;;;;;;;45.58;10.00;;;22.50;99.90;;;;;;4949559;28;20282;-76
2023/06/03 00:03:44;;;;;;;49.33;8.67;;;22.40;99.90;;;;;;4963933;28;20186;-76
2023/06/03 00:06:12;;;;;;;46.80;9.45;;;22.40;99.90;;;;;;4957725;28;20550;-76
2023/06/03 00:08:44;;;;;;;61.90;10.45;;;22.30;99.90;;;;;;4959492;28;20225;-76
2023/06/03 00:11:11;;;;;;;50.28;9.82;;;22.30;99.90;;;;;;4984220;28;20748;-76
2023/06/03 00:13:38;;;;;;;52.65;10.23;;;22.30;99.90;;;;;;4952362;28;20179;-75
2023/06/03 00:16:06;;;;;;;43.47;9.13;;;22.30;99.90;;;;;;4951866;28;20191;-75
2023/06/03 00:18:32;;;;;;;52.90;10.30;;;22.20;99.90;;;;;;4954202;28;20721;-75
2023/06/03 00:21:01;;;;;;;59.20;10.77;;;22.20;99.90;;;;;;4950585;28;20230;-75
2023/06/03 00:23:27;;;;;;;55.50;9.80;;;22.20;99.90;;;;;;4951750;28;20202;-75
2023/06/03 00:25:54;;;;;;;50.80;10.23;;;22.20;99.90;;;;;;4971512;28;20193;-74
2023/06/03 00:28:20;;;;;;;60.75;11.13;;;22.10;99.90;;;;;;4953250;28;20226;-75
2023/06/03 00:30:46;;;;;;;95.90;13.83;;;22.10;99.90;;;;;;4952474;28;20194;-75
2023/06/03 00:33:13;;;;;;;70.47;12.25;;;22.10;99.90;;;;;;4959117;28;20278;-76
2023/06/03 00:35:39;;;;;;;63.33;12.38;;;22.00;99.90;;;;;;4965585;28;20265;-75
2023/06/03 00:38:05;;;;;;;72.57;13.10;;;22.00;99.90;;;;;;4955174;28;20562;-75
2023/06/03 00:40:31;;;;;;;65.67;12.50;;;22.00;99.90;;;;;;4956401;28;20522;-76
2023/06/03 00:42:58;;;;;;;78.97;12.93;;;22.00;99.90;;;;;;4953811;28;20252;-76
2023/06/03 00:45:24;;;;;;;77.97;13.27;;;21.90;99.90;;;;;;4958030;28;20277;-76
2023/06/03 00:47:52;;;;;;;77.70;14.07;;;21.80;99.90;;;;;;4959807;28;20700;-75
2023/06/03 00:50:18;;;;;;;82.10;13.52;;;21.80;99.90;;;;;;4981097;28;20297;-75
2023/06/03 00:52:47;;;;;;;89.57;14.27;;;21.80;99.90;;;;;;4959147;28;20190;-75
2023/06/03 00:55:13;;;;;;;67.43;12.50;;;21.80;99.90;;;;;;4958907;28;20182;-75
2023/06/03 00:57:40;;;;;;;93.83;14.43;;;21.60;99.90;;;;;;4959593;28;20190;-75
2023/06/03 01:00:08;;;;;;;65.60;13.07;;;21.50;99.90;;;;;;4957350;28;20222;-75
2023/06/03 01:02:36;;;;;;;68.63;12.97;;;21.40;99.90;;;;;;4957498;28;20196;-75
2023/06/03 01:05:04;;;;;;;68.67;12.87;;;21.40;99.90;;;;;;4959963;28;20302;-75
2023/06/03 01:08:01;;;;;;;70.80;13.93;;;21.40;99.90;;;;;;4959114;28;20249;-75
2023/06/03 01:11:00;;;;;;;76.67;14.17;;;21.40;99.90;;;;;;4957895;28;20598;-75
2023/06/03 01:13:31;;;;;;;87.77;14.77;;;21.40;99.90;;;;;;4957804;28;20202;-76
2023/06/03 01:16:04;;;;;;;72.70;13.10;;;21.40;99.90;;;;;;4953378;28;20210;-76
2023/06/03 01:18:36;;;;;;;81.97;13.77;;;21.40;99.90;;;;;;4962768;28;21007;-75
2023/06/03 01:21:03;;;;;;;84.10;13.63;;;21.40;99.90;;;;;;4957767;28;21692;-76
2023/06/03 01:23:33;;;;;;;71.03;13.60;;;21.50;99.90;;;;;;4956012;28;20306;-75
2023/06/03 01:26:06;;;;;;;71.70;13.13;;;21.50;99.90;;;;;;4957525;28;20198;-75
2023/06/03 01:28:32;;;;;;;89.13;14.40;;;21.50;99.90;;;;;;4943889;28;20221;-75
2023/06/03 01:31:01;;;;;;;82.67;13.97;;;21.50;99.90;;;;;;4954250;28;20190;-75
2023/06/03 01:33:32;;;;;;;83.37;14.80;;;21.50;99.90;;;;;;4945821;28;20197;-76
2023/06/03 01:36:02;;;;;;;88.40;15.37;;;21.50;99.90;;;;;;4953262;28;20329;-75
2023/06/03 01:38:29;;;;;;;90.43;16.37;;;21.60;99.90;;;;;;4950270;28;20195;-75
2023/06/03 01:40:56;;;;;;;88.67;14.63;;;21.60;99.90;;;;;;4951843;28;20595;-76
2023/06/03 01:43:22;;;;;;;88.83;15.27;;;21.60;99.90;;;;;;4964937;28;20190;-75
2023/06/03 01:45:48;;;;;;;90.23;15.40;;;21.60;99.90;;;;;;4954408;28;20661;-75
2023/06/03 01:48:15;;;;;;;103.43;16.17;;;21.60;99.90;;;;;;4962738;28;20210;-75
2023/06/03 01:50:45;;;;;;;105.30;16.87;;;21.60;99.90;;;;;;4938494;28;20582;-75
2023/06/03 01:53:12;;;;;;;107.77;16.93;;;21.60;99.90;;;;;;4954657;28;20269;-76
2023/06/03 01:55:38;;;;;;;105.17;17.73;;;21.50;99.90;;;;;;4953994;28;20201;-75
2023/06/03 01:58:05;;;;;;;89.30;15.23;;;21.50;99.90;;;;;;4957742;28;20289;-75
2023/06/03 02:00:31;;;;;;;104.80;16.17;;;21.50;99.90;;;;;;4958846;28;20206;-76
2023/06/03 02:02:57;;;;;;;86.30;15.50;;;21.40;99.90;;;;;;4978991;28;20290;-75
2023/06/03 02:05:24;;;;;;;97.50;17.43;;;21.40;99.90;;;;;;4953342;28;21102;-74
2023/06/03 02:07:50;;;;;;;105.23;16.97;;;21.40;99.90;;;;;;4957553;28;20218;-74
2023/06/03 02:10:16;;;;;;;125.33;17.30;;;21.40;99.90;;;;;;4952190;28;20198;-74
2023/06/03 02:12:42;;;;;;;111.13;17.33;;;21.40;99.90;;;;;;4979501;28;20738;-74
2023/06/03 02:15:09;;;;;;;101.70;18.47;;;21.40;99.90;;;;;;4940660;28;20539;-74
2023/06/03 02:17:36;;;;;;;112.07;17.33;;;21.30;99.90;;;;;;4941139;28;20237;-75
2023/06/03 02:20:03;;;;;;;114.07;17.87;;;21.30;99.90;;;;;;4941474;28;20289;-75
2023/06/03 02:22:29;;;;;;;115.63;17.80;;;21.30;99.90;;;;;;4979321;28;20237;-74
2023/06/03 02:24:57;;;;;;;105.57;16.33;;;21.30;99.90;;;;;;4952961;28;20285;-75
2023/06/03 02:27:24;;;;;;;100.17;17.23;;;21.30;99.90;;;;;;4939743;28;20207;-74
2023/06/03 02:29:52;;;;;;;101.30;16.07;;;21.30;99.90;;;;;;4951798;28;20294;-74
2023/06/03 02:32:21;;;;;;;114.30;16.47;;;21.20;99.90;;;;;;4951358;28;20265;-74
2023/06/03 02:34:50;;;;;;;108.27;17.53;;;21.20;99.90;;;;;;4948739;28;20190;-74
2023/06/03 02:37:17;;;;;;;98.70;16.67;;;21.20;99.90;;;;;;4982866;28;20531;-74
2023/06/03 02:39:44;;;;;;;112.57;16.90;;;21.20;99.90;;;;;;4953266;28;20505;-74
2023/06/03 02:42:11;;;;;;;101.83;16.23;;;21.20;99.90;;;;;;4950980;28;20866;-75
2023/06/03 02:44:38;;;;;;;97.60;16.83;;;21.10;99.90;;;;;;4969002;28;20829;-75
2023/06/03 02:47:05;;;;;;;83.67;15.10;;;21.10;99.90;;;;;;4948343;28;20248;-75
2023/06/03 02:49:31;;;;;;;97.13;15.17;;;21.10;99.90;;;;;;4954345;28;20194;-75
2023/06/03 02:51:58;;;;;;;111.43;15.33;;;21.10;99.90;;;;;;4955215;28;20189;-75
2023/06/03 02:54:24;;;;;;;104.20;17.50;;;21.10;99.90;;;;;;4956662;28;20189;-75
2023/06/03 02:56:51;;;;;;;90.43;16.47;;;21.10;99.90;;;;;;4958142;28;20187;-75
2023/06/03 02:59:17;;;;;;;106.37;16.60;;;21.00;99.90;;;;;;4980056;28;20570;-74
2023/06/03 03:01:43;;;;;;;95.63;16.07;;;20.90;99.90;;;;;;4951769;28;20601;-74
2023/06/03 03:04:10;;;;;;;107.83;16.37;;;21.00;99.90;;;;;;4982182;28;20711;-74
2023/06/03 03:06:37;;;;;;;76.07;14.47;;;21.00;99.90;;;;;;4953531;28;20202;-74
2023/06/03 03:09:07;;;;;;;121.33;18.27;;;21.00;99.90;;;;;;4954726;28;20649;-74
2023/06/03 03:11:34;;;;;;;124.33;18.13;;;21.00;99.90;;;;;;4965669;28;20190;-74
2023/06/03 03:14:01;;;;;;;100.90;16.53;;;21.00;99.90;;;;;;4957388;28;20201;-74
2023/06/03 03:16:28;;;;;;;99.87;16.50;;;21.00;99.90;;;;;;4950621;28;20194;-74
2023/06/03 03:18:54;;;;;;;109.73;16.53;;;20.90;99.90;;;;;;4952185;28;20197;-75
2023/06/03 03:21:20;;;;;;;124.10;18.67;;;20.90;99.90;;;;;;4981084;28;20190;-74
2023/06/03 03:23:47;;;;;;;117.60;18.27;;;20.90;99.90;;;;;;4952150;28;21688;-73
2023/06/03 03:26:13;;;;;;;107.20;17.30;;;20.90;99.90;;;;;;4951441;28;20574;-73
2023/06/03 03:28:39;;;;;;;109.50;17.70;;;21.00;99.90;;;;;;4981151;28;20217;-74
2023/06/03 03:31:06;;;;;;;101.17;16.67;;;20.90;99.90;;;;;;4951090;28;20407;-73
2023/06/03 03:33:32;;;;;;;107.38;17.73;;;20.90;99.90;;;;;;4979416;28;20427;-74
2023/06/03 03:36:08;;;;;;;100.67;16.67;;;20.90;99.90;;;;;;4951180;28;21350;-74
2023/06/03 03:38:36;;;;;;;93.97;16.87;;;20.90;99.90;;;;;;4955853;28;20218;-74
2023/06/03 03:41:07;;;;;;;90.53;16.63;;;20.90;99.90;;;;;;4955482;28;20194;-74
2023/06/03 03:43:34;;;;;;;93.20;16.27;;;20.90;99.90;;;;;;4984235;28;20229;-73
2023/06/03 03:46:01;;;;;;;90.37;15.27;;;21.00;99.90;;;;;;4952146;28;20684;-75
2023/06/03 03:48:30;;;;;;;91.47;15.30;;;21.00;99.90;;;;;;4959036;28;20288;-74
2023/06/03 03:50:57;;;;;;;91.33;15.60;;;21.00;99.90;;;;;;4956720;28;20724;-74
2023/06/03 03:53:34;;;;;;;81.00;15.27;;;21.00;99.90;;;;;;4944433;28;20293;-74
2023/06/03 03:56:00;;;;;;;76.80;14.20;;;21.10;99.90;;;;;;4955740;28;20202;-74
2023/06/03 03:58:37;;;;;;;71.67;14.10;;;21.10;99.90;;;;;;4973050;28;20229;-73
2023/06/03 04:01:23;;;;;;;62.80;12.77;;;21.10;99.90;;;;;;4949908;28;20202;-73
2023/06/03 04:03:52;;;;;;;82.53;12.73;;;21.10;99.90;;;;;;4953297;28;20201;-73
2023/06/03 04:06:38;;;;;;;72.57;14.10;;;21.20;99.90;;;;;;4956076;28;20226;-73
2023/06/03 04:09:10;;;;;;;91.90;15.33;;;21.20;99.90;;;;;;4954404;28;20202;-73
2023/06/03 04:11:42;;;;;;;78.17;14.80;;;21.30;99.90;;;;;;4957734;28;20198;-73
2023/06/03 04:14:14;;;;;;;47.43;10.43;;;21.30;99.90;;;;;;4943054;28;20202;-73
2023/06/03 04:17:14;;;;;;;58.50;13.07;;;21.30;99.90;;;;;;4941846;28;20251;-73
2023/06/03 04:19:41;;;;;;;69.53;11.30;;;21.30;99.90;;;;;;4918696;28;20252;-73
2023/06/03 04:22:12;;;;;;;60.93;11.10;;;21.30;99.90;;;;;;4956441;28;20741;-74
2023/06/03 04:24:42;;;;;;;40.77;8.07;;;21.30;99.90;;;;;;4983689;28;20194;-73
2023/06/03 04:27:08;;;;;;;27.63;7.13;;;21.30;99.90;;;;;;4957475;28;20189;-73
2023/06/03 04:29:35;;;;;;;37.57;7.50;;;21.30;99.90;;;;;;4957414;28;20182;-73
2023/06/03 04:32:01;;;;;;;33.20;7.20;;;21.30;99.90;;;;;;4955917;28;20210;-73
2023/06/03 04:34:29;;;;;;;32.90;6.37;;;21.30;99.90;;;;;;4960330;28;20182;-73
2023/06/03 04:36:56;;;;;;;22.67;5.60;;;21.40;99.90;;;;;;4959189;28;20183;-73
2023/06/03 04:39:22;;;;;;;23.70;5.60;;;21.40;99.90;;;;;;4967295;28;20189;-73
2023/06/03 04:41:49;;;;;;;23.75;6.10;;;21.40;99.90;;;;;;4951453;28;20825;-73
2023/06/03 04:44:15;;;;;;;25.50;5.60;;;21.30;99.90;;;;;;4957154;28;20186;-73
2023/06/03 04:46:45;;;;;;;22.35;6.25;;;21.30;99.90;;;;;;4957415;28;20612;-75
2023/06/03 04:49:12;;;;;;;19.58;5.50;;;21.30;99.90;;;;;;4959393;28;20286;-75
2023/06/03 04:51:40;;;;;;;21.93;5.10;;;21.30;99.90;;;;;;4951938;28;20191;-75
2023/06/03 04:54:06;;;;;;;17.60;5.35;;;21.20;99.90;;;;;;4957158;28;20183;-75
2023/06/03 04:56:33;;;;;;;22.60;6.07;;;21.20;99.90;;;;;;4956754;28;20661;-75
2023/06/03 04:59:05;;;;;;;24.33;5.30;;;21.20;99.90;;;;;;4971171;28;20213;-75
2023/06/03 05:01:32;;;;;;;15.43;4.47;;;21.30;99.90;;;;;;4953729;28;20189;-75
2023/06/03 05:03:58;;;;;;;19.93;4.80;;;21.20;99.90;;;;;;4958763;28;20193;-74
2023/06/03 05:06:24;;;;;;;23.97;5.57;;;21.10;99.90;;;;;;4955675;28;20198;-75
2023/06/03 05:08:51;;;;;;;17.13;5.63;;;21.10;99.90;;;;;;4959160;28;20581;-73
2023/06/03 05:11:18;;;;;;;22.00;5.53;;;21.10;99.90;;;;;;4951124;28;20419;-74
2023/06/03 05:13:45;;;;;;;24.73;5.77;;;21.10;99.90;;;;;;4951750;28;20658;-73
2023/06/03 05:16:12;;;;;;;24.63;6.00;;;21.10;99.90;;;;;;4956255;28;20237;-74
2023/06/03 05:18:41;;;;;;;25.87;6.93;;;21.00;99.90;;;;;;4956960;28;20654;-74
2023/06/03 05:21:08;;;;;;;28.33;7.23;;;21.10;99.90;;;;;;4937952;28;20556;-75
2023/06/03 05:23:34;;;;;;;30.03;6.63;;;21.10;99.90;;;;;;4973019;28;20679;-75
2023/06/03 05:26:00;;;;;;;35.30;7.60;;;21.10;99.90;;;;;;4960631;28;20688;-75
2023/06/03 05:28:27;;;;;;;28.00;6.63;;;21.10;99.90;;;;;;4972126;28;20306;-75
2023/06/03 05:30:53;;;;;;;37.27;6.93;;;21.10;99.90;;;;;;4959034;28;20270;-75
2023/06/03 05:33:31;;;;;;;29.23;7.53;;;21.20;99.90;;;;;;4959655;28;20186;-76
2023/06/03 05:35:58;;;;;;;35.20;8.20;;;21.20;99.90;;;;;;4960223;28;20191;-75
2023/06/03 05:38:27;;;;;;;31.53;7.83;;;21.20;99.90;;;;;;4952676;28;20186;-75
2023/06/03 05:40:54;;;;;;;38.30;7.83;;;21.30;99.90;;;;;;4968951;28;20203;-75
2023/06/03 05:43:20;;;;;;;28.50;7.20;;;21.30;99.90;;;;;;4952468;28;20186;-75
2023/06/03 05:45:47;;;;;;;40.37;9.70;;;21.30;99.90;;;;;;4956932;28;20253;-75
2023/06/03 05:48:13;;;;;;;34.23;7.97;;;21.30;99.90;;;;;;4963147;28;20314;-75
2023/06/03 05:50:52;;;;;;;37.00;8.77;;;21.30;99.90;;;;;;4954822;28;20203;-75
2023/06/03 05:53:25;;;;;;;33.80;8.60;;;21.40;99.90;;;;;;4961119;28;20406;-76
2023/06/03 05:55:53;;;;;;;27.63;7.23;;;21.30;99.90;;;;;;4970292;28;20289;-76
2023/06/03 05:58:21;;;;;;;39.47;9.33;;;21.40;99.90;;;;;;4955481;28;20183;-76
2023/06/03 06:00:48;;;;;;;44.40;8.67;;;21.40;99.90;;;;;;4952726;28;20186;-75
2023/06/03 06:03:15;;;;;;;34.80;8.73;;;21.40;99.90;;;;;;4955865;28;20191;-76
2023/06/03 06:05:41;;;;;;;37.10;8.80;;;21.40;99.90;;;;;;4954791;28;20499;-76
2023/06/03 06:08:08;;;;;;;36.87;8.67;;;21.50;99.90;;;;;;4965036;28;20202;-75
2023/06/03 06:10:34;;;;;;;46.60;10.00;;;21.50;99.90;;;;;;4949680;28;20187;-74
2023/06/03 06:13:00;;;;;;;40.30;9.03;;;21.60;99.90;;;;;;4960002;28;20267;-75
2023/06/03 06:15:30;;;;;;;37.43;8.90;;;21.60;99.90;;;;;;4953142;28;20191;-75
2023/06/03 06:17:56;;;;;;;44.20;9.67;;;21.70;99.90;;;;;;4959984;28;20194;-74
2023/06/03 06:20:23;;;;;;;39.23;9.67;;;21.70;99.90;;;;;;4960515;28;20230;-74
2023/06/03 06:22:49;;;;;;;31.50;8.93;;;21.70;99.90;;;;;;4966926;28;20208;-75
2023/06/03 06:25:16;;;;;;;36.50;8.63;;;21.80;99.90;;;;;;4953989;28;20768;-74
2023/06/03 06:27:42;;;;;;;42.90;9.83;;;21.80;99.90;;;;;;4957426;28;20214;-74
2023/06/03 06:30:09;;;;;;;39.00;8.90;;;21.80;99.90;;;;;;4943661;28;20186;-74
2023/06/03 06:32:53;;;;;;;39.60;9.63;;;21.80;99.90;;;;;;4965519;28;20194;-75
2023/06/03 06:35:20;;;;;;;37.78;9.38;;;21.80;99.90;;;;;;4963875;28;20209;-75
2023/06/03 06:37:47;;;;;;;33.63;9.20;;;21.80;99.90;;;;;;4959954;28;20186;-74
2023/06/03 06:40:21;;;;;;;41.13;10.38;;;21.80;99.90;;;;;;4975143;28;20196;-74
2023/06/03 06:42:49;;;;;;;40.08;9.40;;;21.90;99.90;;;;;;4954368;28;20996;-74
2023/06/03 06:45:30;;;;;;;32.43;8.67;;;22.00;99.90;;;;;;4971854;28;20205;-74
2023/06/03 06:48:06;;;;;;;27.17;9.00;;;21.90;99.90;;;;;;4955065;28;20258;-74
2023/06/03 06:50:59;;;;;;;37.33;9.03;;;21.90;99.90;;;;;;4968862;28;20193;-73
2023/06/03 06:53:28;;;;;;;26.97;8.77;;;21.90;99.90;;;;;;4981366;28;20261;-74
2023/06/03 06:56:03;;;;;;;34.10;10.47;;;21.80;99.90;;;;;;4973181;28;20191;-74
2023/06/03 06:58:38;;;;;;;36.17;9.23;;;21.90;99.90;;;;;;4976854;28;20198;-74
2023/06/03 07:01:06;;;;;;;31.70;9.37;;;21.90;99.90;;;;;;4974139;28;20560;-75
2023/06/03 07:03:34;;;;;;;22.00;9.05;;;21.90;99.90;;;;;;4954137;28;20614;-75
2023/06/03 07:06:00;;;;;;;32.50;9.38;;;22.00;99.90;;;;;;4953099;28;20707;-75
2023/06/03 07:08:27;;;;;;;27.80;8.93;;;22.00;99.90;;;;;;4955963;28;20203;-76
2023/06/03 07:11:02;;;;;;;26.03;8.70;;;22.10;99.90;;;;;;4961852;28;20205;-75
2023/06/03 07:13:28;;;;;;;35.53;8.60;;;22.00;99.90;;;;;;4956765;28;20182;-75
2023/06/03 07:15:57;;;;;;;26.50;8.13;;;22.00;99.90;;;;;;4959759;28;20183;-75
2023/06/03 07:18:25;;;;;;;27.88;9.27;;;22.00;99.90;;;;;;4963887;28;20193;-75
2023/06/03 07:20:52;;;;;;;23.83;7.88;;;21.90;99.90;;;;;;4951370;28;20187;-75
2023/06/03 07:23:29;;;;;;;22.93;7.83;;;21.90;99.90;;;;;;4975799;28;20191;-75
2023/06/03 07:25:56;;;;;;;16.60;7.13;;;21.90;99.90;;;;;;4963775;28;20760;-75
2023/06/03 07:28:34;;;;;;;28.42;7.75;;;22.00;99.90;;;;;;4964030;28;20962;-75
2023/06/03 07:31:06;;;;;;;22.53;8.27;;;22.00;99.90;;;;;;4956101;28;20507;-75
2023/06/03 07:33:55;;;;;;;24.67;7.40;;;21.90;99.90;;;;;;4954594;28;20205;-75
2023/06/03 07:36:24;;;;;;;26.97;8.00;;;21.80;99.90;;;;;;4978886;28;20898;-75
2023/06/03 07:39:06;;;;;;;23.75;7.22;;;21.80;99.90;;;;;;4973820;28;20198;-75
2023/06/03 07:41:40;;;;;;;25.07;7.50;;;21.80;99.90;;;;;;4981214;28;20209;-75
2023/06/03 07:44:13;;;;;;;27.87;7.50;;;21.90;99.90;;;;;;4964565;28;20197;-75
2023/06/03 07:46:55;;;;;;;26.47;7.70;;;22.00;99.90;;;;;;4955723;28;20282;-75
2023/06/03 07:49:22;;;;;;;27.63;7.40;;;22.00;99.90;;;;;;4953751;28;20206;-75
2023/06/03 07:51:51;;;;;;;22.83;6.70;;;22.10;99.90;;;;;;4951878;28;20233;-75
2023/06/03 07:54:19;;;;;;;21.73;7.13;;;22.20;99.90;;;;;;4956105;28;20190;-75
2023/06/03 07:56:46;;;;;;;26.27;7.10;;;22.30;99.90;;;;;;4954278;28;20644;-76
2023/06/03 07:59:15;;;;;;;27.27;7.13;;;22.40;99.90;;;;;;4953979;28;20554;-76
2023/06/03 08:01:42;;;;;;;17.77;6.43;;;22.50;99.90;;;;;;4953130;28;20187;-75
2023/06/03 08:04:15;;;;;;;26.05;7.25;;;22.40;99.90;;;;;;4956398;28;20206;-76
2023/06/03 08:06:45;;;;;;;21.08;6.35;;;22.40;99.90;;;;;;4954721;28;20210;-76
2023/06/03 08:09:40;;;;;;;25.37;6.50;;;22.30;99.90;;;;;;4952233;28;20211;-75
2023/06/03 08:12:08;;;;;;;16.90;5.93;;;22.30;99.90;;;;;;4978101;28;20480;-75
2023/06/03 08:14:37;;;;;;;20.83;6.83;;;22.30;99.90;;;;;;4950461;28;20673;-76
2023/06/03 08:17:11;;;;;;;16.80;5.57;;;22.30;99.90;;;;;;4957214;28;20209;-76
2023/06/03 08:19:38;;;;;;;22.73;6.47;;;22.30;99.90;;;;;;4952554;28;20258;-75
2023/06/03 08:22:42;;;;;;;24.85;7.45;;;22.40;99.90;;;;;;4952423;28;20224;-75
2023/06/03 08:25:08;;;;;;;21.80;6.20;;;22.40;99.90;;;;;;4949571;28;20337;-75
2023/06/03 08:27:37;;;;;;;24.20;7.13;;;22.40;99.90;;;;;;4947808;28;20623;-75
2023/06/03 08:30:08;;;;;;;25.55;7.28;;;22.40;99.90;;;;;;4955765;28;20541;-76
2023/06/03 08:32:36;;;;;;;24.35;6.57;;;22.50;99.90;;;;;;4949817;28;20230;-75
2023/06/03 08:35:03;;;;;;;20.58;5.88;;;22.50;99.90;;;;;;4952756;28;20277;-75
2023/06/03 08:37:33;;;;;;;21.02;6.43;;;22.50;99.90;;;;;;4960302;28;20189;-76
2023/06/03 08:40:09;;;;;;;26.73;6.38;;;22.50;99.90;;;;;;4954809;28;20845;-75
2023/06/03 08:42:44;;;;;;;17.80;5.70;;;22.40;99.90;;;;;;4982221;28;20667;-76
2023/06/03 08:45:22;;;;;;;17.63;6.10;;;22.40;99.90;;;;;;4955373;28;20189;-76
2023/06/03 08:48:32;;;;;;;23.25;6.15;;;22.40;99.90;;;;;;4956758;28;20230;-75
2023/06/03 08:51:05;;;;;;;19.05;6.00;;;22.50;99.90;;;;;;4921677;28;20545;-75
2023/06/03 08:53:52;;;;;;;17.38;6.00;;;22.70;99.90;;;;;;4958450;28;20242;-74
2023/06/03 08:56:22;;;;;;;21.73;6.43;;;22.60;99.90;;;;;;4958015;28;20543;-75
2023/06/03 08:59:02;;;;;;;23.48;6.30;;;22.60;99.90;;;;;;4967088;28;20208;-75
2023/06/03 09:01:35;;;;;;;22.52;7.05;;;22.50;99.90;;;;;;4956975;28;20205;-75
2023/06/03 09:04:04;;;;;;;23.38;6.97;;;22.50;99.90;;;;;;4962189;28;20309;-76
2023/06/03 09:06:31;;;;;;;16.75;5.90;;;22.40;99.90;;;;;;4951418;28;20214;-75
2023/06/03 09:09:00;;;;;;;19.23;6.50;;;22.40;99.90;;;;;;4952662;28;20230;-75
2023/06/03 09:11:27;;;;;;;25.10;7.20;;;22.30;99.90;;;;;;4954498;28;20206;-75
2023/06/03 09:13:54;;;;;;;24.63;6.03;;;22.30;99.90;;;;;;4955104;28;20263;-75
2023/06/03 09:16:21;;;;;;;18.73;5.70;;;22.40;99.90;;;;;;4981774;28;20385;-75
2023/06/03 09:18:51;;;;;;;20.37;6.07;;;22.40;99.90;;;;;;4966734;28;20186;-75
2023/06/03 09:21:19;;;;;;;18.63;5.53;;;22.40;99.90;;;;;;4985054;28;20191;-75
2023/06/03 09:23:45;;;;;;;19.67;5.95;;;22.40;99.90;;;;;;4956453;28;20202;-75
2023/06/03 09:26:12;;;;;;;19.45;6.03;;;22.40;99.90;;;;;;4959792;28;20205;-75
2023/06/03 09:28:38;;;;;;;24.30;7.05;;;22.40;99.90;;;;;;4962241;28;20214;-75
2023/06/03 09:31:05;;;;;;;20.90;6.10;;;22.40;99.90;;;;;;4955444;28;20614;-75
2023/06/03 09:33:32;;;;;;;19.05;5.43;;;22.50;99.90;;;;;;4964721;28;20198;-75
2023/06/03 09:36:13;;;;;;;19.83;5.55;;;22.50;99.90;;;;;;4947159;28;20206;-75
2023/06/03 09:38:54;;;;;;;16.00;5.47;;;22.50;99.90;;;;;;4958218;28;20194;-75
2023/06/03 09:41:26;;;;;;;18.27;5.75;;;22.50;99.90;;;;;;4956453;28;20222;-75
2023/06/03 09:43:57;;;;;;;18.08;5.53;;;22.50;99.90;;;;;;4971094;28;20270;-75
2023/06/03 09:46:26;;;;;;;15.25;5.00;;;22.40;99.90;;;;;;4958279;28;20224;-74
2023/06/03 09:48:52;;;;;;;16.92;5.55;;;22.40;99.90;;;;;;4958421;28;20254;-75
2023/06/03 09:51:19;;;;;;;18.08;5.15;;;22.40;99.90;;;;;;4949646;28;20288;-75
2023/06/03 09:53:45;;;;;;;21.13;5.57;;;22.40;99.90;;;;;;4957092;28;20601;-75
2023/06/03 09:56:26;;;;;;;19.00;4.80;;;22.40;99.90;;;;;;4946600;28;20183;-75
2023/06/03 09:59:17;;;;;;;16.75;5.00;;;22.40;99.90;;;;;;4966012;28;20187;-75
2023/06/03 10:01:49;;;;;;;16.85;5.00;;;22.50;99.90;;;;;;4955058;28;20662;-75
2023/06/03 10:04:23;;;;;;;18.50;5.25;;;22.60;99.90;;;;;;4974348;28;20230;-75
2023/06/03 10:07:20;;;;;;;16.10;4.55;;;22.60;99.90;;;;;;4958756;28;20202;-75
2023/06/03 10:09:47;;;;;;;14.38;4.68;;;22.50;99.90;;;;;;4979166;28;20916;-75
2023/06/03 10:12:15;;;;;;;13.65;4.20;;;22.50;99.90;;;;;;4948045;28;20186;-74
2023/06/03 10:14:49;;;;;;;14.52;4.68;;;22.60;99.90;;;;;;4974407;28;20249;-74
2023/06/03 10:17:18;;;;;;;13.48;4.95;;;22.60;99.90;;;;;;4961908;28;20468;-75
2023/06/03 10:19:46;;;;;;;16.13;4.40;;;22.90;99.90;;;;;;4959909;28;20896;-75
2023/06/03 10:22:20;;;;;;;14.25;4.45;;;22.90;99.90;;;;;;4966496;28;20528;-75
2023/06/03 10:24:49;;;;;;;15.00;4.95;;;22.90;99.90;;;;;;4941654;28;20236;-75
2023/06/03 10:27:17;;;;;;;14.45;4.60;;;22.80;99.90;;;;;;4955499;28;20881;-74
2023/06/03 10:29:44;;;;;;;12.98;4.57;;;22.80;99.90;;;;;;4950906;28;21060;-75
2023/06/03 10:32:14;;;;;;;17.45;4.72;;;22.70;99.90;;;;;;4953567;28;20209;-75
2023/06/03 10:34:42;;;;;;;14.23;4.53;;;22.70;99.90;;;;;;4953701;28;20186;-75
2023/06/03 10:37:12;;;;;;;14.95;4.40;;;22.70;99.90;;;;;;4950883;28;20549;-75
2023/06/03 10:39:42;;;;;;;14.75;4.57;;;22.70;99.90;;;;;;4945082;28;20235;-75
2023/06/03 10:42:12;;;;;;;13.75;4.70;;;22.70;99.90;;;;;;4948903;28;20189;-74
2023/06/03 10:44:39;;;;;;;15.70;4.70;;;22.80;99.90;;;;;;4951921;28;20570;-74
2023/06/03 10:47:13;;;;;;;23.67;5.50;;;22.70;99.90;;;;;;4953651;28;20182;-74
2023/06/03 10:50:00;;;;;;;18.30;4.85;;;22.70;99.90;;;;;;4953404;28;22253;-74
2023/06/03 10:52:38;;;;;;;16.85;4.35;;;22.60;99.90;;;;;;4950609;28;20636;-75
2023/06/03 10:55:34;;;;;;;16.10;4.72;;;22.60;99.90;;;;;;4955800;28;20550;-75
2023/06/03 10:58:18;;;;;;;14.38;4.15;;;22.60;99.90;;;;;;4967279;28;21204;-75
2023/06/03 11:01:02;;;;;;;18.30;4.03;;;22.80;99.90;;;;;;4941877;28;20186;-75
2023/06/03 11:03:54;;;;;;;13.43;4.25;;;22.80;99.90;;;;;;4951649;28;20188;-75
2023/06/03 11:06:25;;;;;;;14.27;5.13;;;22.80;99.90;;;;;;4955576;28;20301;-75
2023/06/03 11:09:08;;;;;;;15.98;4.72;;;22.80;99.90;;;;;;4952266;28;20808;-74
2023/06/03 11:11:53;;;;;;;9.60;4.00;;;22.90;99.90;;;;;;4951088;28;20255;-75
2023/06/03 11:14:38;;;;;;;11.65;3.95;;;22.90;99.90;;;;;;4955838;28;20230;-75
2023/06/03 11:17:04;;;;;;;16.40;4.75;;;22.90;99.90;;;;;;4968234;28;20233;-74
2023/06/03 11:19:38;;;;;;;10.80;4.10;;;22.90;99.90;;;;;;4951199;28;20250;-74
2023/06/03 11:22:08;;;;;;;14.35;3.97;;;22.90;99.90;;;;;;4954733;28;20198;-75
2023/06/03 11:24:45;;;;;;;14.60;4.78;;;22.90;99.90;;;;;;4951996;28;20586;-74
2023/06/03 11:27:14;;;;;;;12.70;4.38;;;23.00;99.90;;;;;;4967010;28;20201;-74
2023/06/03 11:30:04;;;;;;;15.13;4.47;;;23.10;99.90;;;;;;4957007;28;20719;-75
2023/06/03 11:32:32;;;;;;;12.43;3.95;;;23.10;99.90;;;;;;4944377;28;20302;-74
2023/06/03 11:35:05;;;;;;;9.73;4.07;;;23.10;99.90;;;;;;4947226;28;20414;-75
2023/06/03 11:37:41;;;;;;;13.43;4.30;;;23.10;99.90;;;;;;4968049;28;20206;-74
2023/06/03 11:40:19;;;;;;;18.75;4.50;;;23.10;99.90;;;;;;4969526;28;20192;-75
2023/06/03 11:42:48;;;;;;;17.60;4.50;;;23.10;99.90;;;;;;4951427;28;20186;-75
2023/06/03 11:45:21;;;;;;;12.50;3.85;;;23.00;99.90;;;;;;4960272;28;20193;-74
2023/06/03 11:47:52;;;;;;;16.00;4.63;;;23.00;99.90;;;;;;4979196;28;20207;-75
2023/06/03 11:50:21;;;;;;;18.17;4.30;;;23.10;99.90;;;;;;4950387;28;20778;-75
2023/06/03 11:52:52;;;;;;;14.77;4.05;;;23.00;99.90;;;;;;4957028;28;20182;-75
2023/06/03 11:55:30;;;;;;;13.25;4.53;;;23.10;99.90;;;;;;4948376;28;20191;-75
2023/06/03 11:58:12;;;;;;;17.23;4.70;;;23.10;99.90;;;;;;4940606;28;20234;-75
2023/06/03 12:00:39;;;;;;;16.20;4.60;;;23.20;99.90;;;;;;4967551;28;20669;-75
2023/06/03 12:03:13;;;;;;;20.27;4.60;;;23.30;99.90;;;;;;4958201;28;21906;-75
2023/06/03 12:05:55;;;;;;;16.42;4.25;;;23.30;99.90;;;;;;4981123;28;20198;-75
2023/06/03 12:08:22;;;;;;;11.65;4.65;;;23.30;99.90;;;;;;4957146;28;20802;-75
2023/06/03 12:25:21;;;;;;;14.43;4.13;;;23.10;99.90;;;;;;5110518;27;20281;-74
2023/06/03 12:27:48;;;;;;;17.20;4.55;;;23.10;99.90;;;;;;5104581;27;20285;-74
2023/06/03 12:30:32;;;;;;;19.08;4.93;;;23.10;99.90;;;;;;5091112;28;20196;-74
2023/06/03 12:32:59;;;;;;;11.57;4.38;;;23.00;99.90;;;;;;5095892;28;20234;-74
2023/06/03 12:35:27;;;;;;;17.45;4.20;;;23.10;99.90;;;;;;5101743;28;20200;-74
2023/06/03 12:38:11;;;;;;;13.35;4.63;;;23.00;99.90;;;;;;5092203;28;20264;-74
2023/06/03 12:40:38;;;;;;;13.88;4.47;;;23.00;99.90;;;;;;5105466;27;20186;-74
2023/06/03 12:43:04;;;;;;;11.40;4.13;;;23.10;99.90;;;;;;5075562;28;20213;-74
2023/06/03 12:45:31;;;;;;;11.75;4.22;;;23.10;99.90;;;;;;5072719;28;20186;-74
2023/06/03 12:47:57;;;;;;;15.98;4.20;;;23.00;99.90;;;;;;5076224;28;20572;-74
2023/06/03 12:50:32;;;;;;;11.27;4.40;;;22.90;99.90;;;;;;5095064;28;20327;-74
2023/06/03 12:53:14;;;;;;;16.13;4.82;;;22.90;99.90;;;;;;5080215;28;20263;-74
2023/06/03 12:55:41;;;;;;;12.68;4.40;;;22.90;99.90;;;;;;5081762;28;20209;-74
2023/06/03 12:58:07;;;;;;;14.05;4.68;;;22.80;99.90;;;;;;5100877;28;20473;-74
2023/06/03 13:00:33;;;;;;;14.32;5.10;;;22.70;99.90;;;;;;5072258;28;20478;-74
2023/06/03 13:03:00;;;;;;;21.58;4.47;;;22.70;99.90;;;;;;5077792;28;20208;-74
2023/06/03 13:05:26;;;;;;;12.98;4.47;;;22.60;99.90;;;;;;5093741;28;22041;-74